createdAt,value
2018-04-29T00:01:14.951Z,49.63
2018-04-29T00:03:41.520Z,44.47
2018-04-29T00:06:07.744Z,46.60
2018-04-29T00:08:33.981Z,53.80
2018-04-29T00:11:00.219Z,41.40
2018-04-29T00:13:26.450Z,30.73
2018-04-29T00:15:53.452Z,38.23
2018-04-29T00:18:21.077Z,35.37
2018-04-29T00:20:47.441Z,44.27
2018-04-29T00:23:13.748Z,37.10
2018-04-29T00:25:40.011Z,42.70
2018-04-29T00:28:06.279Z,37.83
2018-04-29T00:30:32.623Z,48.13
2018-04-29T00:33:20.520Z,36.20
2018-04-29T00:35:47.029Z,35.73
2018-04-29T00:38:14.269Z,35.63
2018-04-29T00:40:40.692Z,42.20
2018-04-29T00:43:07.874Z,38.93
2018-04-29T00:45:35.023Z,37.10
2018-04-29T00:48:02.250Z,34.77
2018-04-29T00:50:28.697Z,43.80
2018-04-29T00:52:55.123Z,42.10
2018-04-29T00:55:21.985Z,49.07
2018-04-29T00:57:48.352Z,35.47
2018-04-29T01:00:15.611Z,41.47
2018-04-29T01:02:42.595Z,44.67
2018-04-29T01:05:09.175Z,45.00
2018-04-29T01:07:35.662Z,43.33
2018-04-29T01:10:02.184Z,46.60
2018-04-29T01:12:28.555Z,46.73
2018-04-29T01:14:54.977Z,45.67
2018-04-29T01:17:21.461Z,46.37
2018-04-29T01:19:48.667Z,49.20
2018-04-29T01:22:15.312Z,42.30
2018-04-29T01:24:42.965Z,40.17
2018-04-29T01:27:09.412Z,38.57
2018-04-29T01:29:35.962Z,46.87
2018-04-29T01:32:02.800Z,43.80
2018-04-29T01:34:29.245Z,53.83
2018-04-29T01:36:55.682Z,47.10
2018-04-29T01:39:22.543Z,45.40
2018-04-29T01:41:49.963Z,45.80
2018-04-29T01:44:16.390Z,45.90
2018-04-29T01:46:43.011Z,45.53
2018-04-29T01:49:09.629Z,37.53
2018-04-29T01:51:36.105Z,36.40
2018-04-29T01:54:02.769Z,39.00
2018-04-29T01:56:29.181Z,38.17
2018-04-29T01:58:56.493Z,39.13
2018-04-29T02:01:24.249Z,37.80
2018-04-29T02:03:51.050Z,35.97
2018-04-29T02:06:17.463Z,32.97
2018-04-29T02:08:44.615Z,38.03
2018-04-29T02:11:10.975Z,32.10
2018-04-29T02:13:37.464Z,35.23
2018-04-29T02:16:04.743Z,41.03
2018-04-29T02:18:31.138Z,44.03
2018-04-29T02:20:58.700Z,34.60
2018-04-29T02:23:25.245Z,29.40
2018-04-29T02:25:51.729Z,40.43
2018-04-29T02:28:18.093Z,32.40
2018-04-29T02:30:51.385Z,36.80
2018-04-29T02:33:18.971Z,38.40
2018-04-29T02:35:45.716Z,33.70
2018-04-29T02:38:12.160Z,27.43
2018-04-29T02:40:38.731Z,33.57
2018-04-29T02:43:06.950Z,32.33
2018-04-29T02:45:34.176Z,29.73
2018-04-29T02:48:00.872Z,33.07
2018-04-29T02:50:27.332Z,36.10
2018-04-29T02:52:53.758Z,28.83
2018-04-29T02:55:20.094Z,38.67
2018-04-29T02:57:46.834Z,34.10
2018-04-29T03:00:13.947Z,37.47
2018-04-29T03:02:40.446Z,37.67
2018-04-29T03:05:08.308Z,33.03
2018-04-29T03:07:34.928Z,42.83
2018-04-29T03:10:01.353Z,30.40
2018-04-29T03:12:27.797Z,32.93
2018-04-29T03:14:54.208Z,38.73
2018-04-29T03:17:21.390Z,35.83
2018-04-29T03:19:47.811Z,34.77
2018-04-29T03:22:14.225Z,40.77
2018-04-29T03:24:40.662Z,32.30
2018-04-29T03:27:09.452Z,30.90
2018-04-29T03:29:36.668Z,38.57
2018-04-29T03:32:04.712Z,36.27
2018-04-29T03:34:31.918Z,40.27
2018-04-29T03:36:58.360Z,37.43
2018-04-29T03:39:24.751Z,32.70
2018-04-29T03:41:51.192Z,33.93
2018-04-29T03:44:17.675Z,43.97
2018-04-29T03:46:44.187Z,47.20
2018-04-29T03:49:10.639Z,38.63
2018-04-29T03:51:43.063Z,40.20
2018-04-29T03:54:09.505Z,38.40
2018-04-29T03:56:35.877Z,35.37
2018-04-29T03:59:14.498Z,34.57
2018-04-29T04:01:53.471Z,44.10
2018-04-29T04:04:20.307Z,48.70
2018-04-29T04:06:47.872Z,37.00
2018-04-29T04:09:14.396Z,32.47
2018-04-29T04:11:40.888Z,34.87
2018-04-29T04:14:08.106Z,41.47
2018-04-29T04:16:34.617Z,42.37
2018-04-29T04:19:01.169Z,32.87
2018-04-29T04:21:27.683Z,31.40
2018-04-29T04:23:54.309Z,41.27
2018-04-29T04:26:20.857Z,35.40
2018-04-29T04:28:47.297Z,35.27
2018-04-29T04:31:14.137Z,31.17
2018-04-29T04:33:40.771Z,39.73
2018-04-29T04:36:07.178Z,32.30
2018-04-29T04:38:33.666Z,31.70
2018-04-29T04:41:00.449Z,45.63
2018-04-29T04:43:29.326Z,30.27
2018-04-29T04:45:55.717Z,32.37
2018-04-29T04:48:23.025Z,38.63
2018-04-29T04:50:49.482Z,46.00
2018-04-29T04:53:15.896Z,38.07
2018-04-29T04:55:42.372Z,46.60
2018-04-29T04:58:08.890Z,30.93
2018-04-29T05:00:42.603Z,38.27
2018-04-29T05:03:08.965Z,31.70
2018-04-29T05:05:36.295Z,34.47
2018-04-29T05:08:09.679Z,34.00
2018-04-29T05:10:36.141Z,30.40
2018-04-29T05:13:02.721Z,37.53
2018-04-29T05:15:29.327Z,30.43
2018-04-29T05:17:56.513Z,44.23
2018-04-29T05:20:24.140Z,30.10
2018-04-29T05:22:50.600Z,30.77
2018-04-29T05:25:18.774Z,32.73
2018-04-29T05:27:45.312Z,31.50
2018-04-29T05:30:11.757Z,35.47
2018-04-29T05:32:38.149Z,34.37
2018-04-29T05:35:05.300Z,32.00
2018-04-29T05:37:31.809Z,32.23
2018-04-29T05:39:59.356Z,32.20
2018-04-29T05:42:25.755Z,34.67
2018-04-29T05:44:53.070Z,33.90
2018-04-29T05:47:19.517Z,32.90
2018-04-29T05:49:46.026Z,33.77
2018-04-29T05:52:13.742Z,30.50
2018-04-29T05:54:40.347Z,26.70
2018-04-29T05:57:06.815Z,32.57
2018-04-29T05:59:33.746Z,31.90
2018-04-29T06:02:00.941Z,29.60
2018-04-29T06:04:27.412Z,34.50
2018-04-29T06:06:54.156Z,30.40
2018-04-29T06:09:20.579Z,34.63
2018-04-29T06:11:46.969Z,30.80
2018-04-29T06:14:14.242Z,31.70
2018-04-29T06:16:40.673Z,28.20
2018-04-29T06:19:07.840Z,32.63
2018-04-29T06:21:35.223Z,32.40
2018-04-29T06:24:03.450Z,32.03
2018-04-29T06:26:29.897Z,28.10
2018-04-29T06:28:58.066Z,25.73
2018-04-29T06:31:24.589Z,18.40
2018-04-29T06:33:51.401Z,19.70
2018-04-29T06:36:17.989Z,25.07
2018-04-29T06:38:45.335Z,20.57
2018-04-29T06:41:11.839Z,29.63
2018-04-29T06:43:40.083Z,22.13
2018-04-29T06:46:06.544Z,25.20
2018-04-29T06:48:33.013Z,24.60
2018-04-29T06:50:59.372Z,24.10
2018-04-29T06:53:26.015Z,27.90
2018-04-29T06:55:52.433Z,30.40
2018-04-29T06:58:20.699Z,30.70
2018-04-29T07:00:47.985Z,26.47
2018-04-29T07:03:14.374Z,27.23
2018-04-29T07:05:42.493Z,24.77
2018-04-29T07:08:09.088Z,31.57
2018-04-29T07:10:35.436Z,27.50
2018-04-29T07:13:01.915Z,24.30
2018-04-29T07:15:28.435Z,25.20
2018-04-29T07:17:56.907Z,25.80
2018-04-29T07:20:24.806Z,23.87
2018-04-29T07:22:54.036Z,26.80
2018-04-29T07:25:22.414Z,22.80
2018-04-29T07:27:52.255Z,27.63
2018-04-29T07:30:21.992Z,18.57
2018-04-29T07:32:48.524Z,19.60
2018-04-29T07:35:16.647Z,16.87
2018-04-29T07:37:43.006Z,13.87
2018-04-29T07:40:11.423Z,15.63
2018-04-29T07:42:38.165Z,12.00
2018-04-29T07:45:06.025Z,11.60
2018-04-29T07:47:32.487Z,17.10
2018-04-29T07:49:59.058Z,11.90
2018-04-29T07:52:25.617Z,13.80
2018-04-29T07:54:52.852Z,9.50
2018-04-29T07:57:20.413Z,7.80
2018-04-29T07:59:47.773Z,7.70
2018-04-29T08:02:15.369Z,11.90
2018-04-29T08:04:42.294Z,12.60
2018-04-29T08:07:08.809Z,11.00
2018-04-29T08:09:36.567Z,9.10
2018-04-29T08:12:03.606Z,7.80
2018-04-29T08:14:31.830Z,10.57
2018-04-29T08:16:58.266Z,8.43
2018-04-29T08:19:25.183Z,8.87
2018-04-29T08:21:53.005Z,10.93
2018-04-29T08:24:20.166Z,12.40
2018-04-29T08:26:48.121Z,18.07
2018-04-29T08:29:14.900Z,14.00
2018-04-29T08:31:41.394Z,14.30
2018-04-29T08:34:08.221Z,16.87
2018-04-29T08:36:34.634Z,18.33
2018-04-29T08:39:02.926Z,12.90
2018-04-29T08:41:31.413Z,17.60
2018-04-29T08:43:59.329Z,14.30
2018-04-29T08:46:28.238Z,15.60
2018-04-29T08:48:55.204Z,15.17
2018-04-29T08:51:22.494Z,18.53
2018-04-29T08:53:49.816Z,15.07
2018-04-29T08:56:16.997Z,16.83
2018-04-29T08:58:43.457Z,16.60
2018-04-29T09:01:11.754Z,13.23
2018-04-29T09:03:39.997Z,17.07
2018-04-29T09:06:06.753Z,16.37
2018-04-29T09:08:34.905Z,17.17
2018-04-29T09:11:01.451Z,13.13
2018-04-29T09:13:27.948Z,16.00
2018-04-29T09:15:54.467Z,12.80
2018-04-29T09:18:21.241Z,12.07
2018-04-29T09:20:52.912Z,12.23
2018-04-29T09:28:47.780Z,16.00
2018-04-29T09:31:14.406Z,16.40
2018-04-29T09:33:40.910Z,16.70
2018-04-29T09:36:07.559Z,17.20
2018-04-29T09:38:35.197Z,19.67
2018-04-29T09:41:15.123Z,14.87
2018-04-29T09:43:55.302Z,15.13
2018-04-29T09:46:37.825Z,9.00
2018-04-29T09:49:14.793Z,8.23
2018-04-29T09:51:42.050Z,10.77
2018-04-29T09:54:09.298Z,12.57
2018-04-29T09:56:36.838Z,9.00
2018-04-29T09:59:05.241Z,10.37
2018-04-29T10:01:35.062Z,7.27
2018-04-29T10:04:03.420Z,9.40
2018-04-29T10:06:30.622Z,7.40
2018-04-29T10:08:56.990Z,6.47
2018-04-29T10:11:23.452Z,8.20
2018-04-29T10:13:49.924Z,6.87
2018-04-29T10:16:16.363Z,5.63
2018-04-29T10:18:43.684Z,8.60
2018-04-29T10:21:10.014Z,8.73
2018-04-29T10:23:37.172Z,6.47
2018-04-29T10:26:04.358Z,7.87
2018-04-29T10:28:30.815Z,9.40
2018-04-29T10:30:57.336Z,11.10
2018-04-29T10:33:23.762Z,11.53
2018-04-29T10:35:51.044Z,9.83
2018-04-29T10:38:18.233Z,12.33
2018-04-29T10:40:45.950Z,12.10
2018-04-29T10:43:16.791Z,11.43
2018-04-29T10:45:51.844Z,14.10
2018-04-29T10:54:21.892Z,15.57
2018-04-29T10:56:50.141Z,17.97
2018-04-29T11:02:04.160Z,10.50
2018-04-29T11:04:30.606Z,15.20
2018-04-29T11:06:57.063Z,9.73
2018-04-29T11:09:23.767Z,14.33
2018-04-29T11:11:50.393Z,14.17
2018-04-29T11:14:18.500Z,14.43
2018-04-29T11:16:45.019Z,15.23
2018-04-29T11:19:11.975Z,15.50
2018-04-29T11:21:38.561Z,13.33
2018-04-29T11:24:05.099Z,14.03
2018-04-29T11:26:31.890Z,16.80
2018-04-29T11:28:58.392Z,16.37
2018-04-29T11:31:25.449Z,19.67
2018-04-29T11:33:52.743Z,20.20
2018-04-29T11:36:19.140Z,19.93
2018-04-29T11:38:45.800Z,18.07
2018-04-29T11:41:12.238Z,18.97
2018-04-29T11:43:39.162Z,25.40
2018-04-29T11:46:05.556Z,25.20
2018-04-29T11:48:33.467Z,27.40
2018-04-29T11:51:00.801Z,23.60
2018-04-29T11:53:28.868Z,28.77
2018-04-29T11:55:55.346Z,28.73
2018-04-29T11:58:22.596Z,29.37
2018-04-29T12:00:49.112Z,24.40
2018-04-29T12:03:16.134Z,27.30
2018-04-29T12:05:45.571Z,21.77
2018-04-29T12:08:13.182Z,22.50
2018-04-29T12:10:39.576Z,20.10
2018-04-29T12:13:06.329Z,20.20
2018-04-29T12:15:32.785Z,25.70
2018-04-29T12:17:59.251Z,26.83
2018-04-29T12:20:25.990Z,26.50
2018-04-29T12:22:52.953Z,31.90
2018-04-29T12:25:21.124Z,29.50
2018-04-29T12:27:47.571Z,26.20
2018-04-29T12:30:14.042Z,28.77
2018-04-29T12:32:41.579Z,40.33
2018-04-29T12:35:08.982Z,44.40
2018-04-29T12:37:36.162Z,50.40
2018-04-29T12:40:02.729Z,46.70
2018-04-29T12:42:29.150Z,46.57
2018-04-29T12:44:56.343Z,46.87
2018-04-29T12:47:23.901Z,47.83
2018-04-29T12:49:51.499Z,53.70
2018-04-29T12:52:17.997Z,53.27
2018-04-29T12:54:46.248Z,47.50
2018-04-29T12:57:13.485Z,51.00
2018-04-29T12:59:40.419Z,48.40
2018-04-29T13:02:06.855Z,47.83
2018-04-29T13:04:33.185Z,52.50
2018-04-29T13:06:59.998Z,63.00
2018-04-29T13:09:27.464Z,51.17
2018-04-29T13:11:54.648Z,44.83
2018-04-29T13:14:21.571Z,46.03
2018-04-29T13:16:48.110Z,52.23
2018-04-29T13:19:16.275Z,42.30
2018-04-29T13:21:44.332Z,43.53
2018-04-29T13:24:10.869Z,39.07
2018-04-29T13:26:38.197Z,45.83
2018-04-29T13:29:06.950Z,39.77
2018-04-29T13:31:33.417Z,40.83
2018-04-29T13:34:00.037Z,36.57
2018-04-29T13:36:27.225Z,44.17
2018-04-29T13:38:54.400Z,39.93
2018-04-29T13:41:21.577Z,34.00
2018-04-29T13:43:48.764Z,33.30
2018-04-29T13:46:15.190Z,37.60
2018-04-29T13:48:42.367Z,32.57
2018-04-29T13:51:09.518Z,34.67
2018-04-29T13:53:36.083Z,34.73
2018-04-29T13:56:02.600Z,33.90
2018-04-29T13:58:29.046Z,34.03
2018-04-29T14:00:55.494Z,29.57
2018-04-29T14:03:22.655Z,29.80
2018-04-29T14:05:51.243Z,29.10
2018-04-29T14:08:17.755Z,34.73
2018-04-29T14:10:45.310Z,27.70
2018-04-29T14:13:12.128Z,27.97
2018-04-29T14:15:39.360Z,24.93
2018-04-29T14:18:05.889Z,25.93
2018-04-29T14:20:35.061Z,26.40
2018-04-29T14:23:01.484Z,27.90
2018-04-29T14:25:27.911Z,23.47
2018-04-29T14:27:54.364Z,24.60
2018-04-29T14:30:21.179Z,31.07
2018-04-29T14:32:48.791Z,28.27
2018-04-29T14:35:16.699Z,26.40
2018-04-29T14:37:43.983Z,27.83
2018-04-29T14:40:10.400Z,23.63
2018-04-29T14:42:38.463Z,24.90
2018-04-29T14:45:06.674Z,25.10
2018-04-29T14:47:34.532Z,28.57
2018-04-29T14:50:05.266Z,25.73
2018-04-29T14:52:32.822Z,24.60
2018-04-29T14:54:59.194Z,25.80
2018-04-29T14:57:25.622Z,23.13
2018-04-29T14:59:53.217Z,20.33
2018-04-29T15:02:19.780Z,20.10
2018-04-29T15:04:46.902Z,20.60
2018-04-29T15:07:13.461Z,20.83
2018-04-29T15:09:39.841Z,19.87
2018-04-29T15:12:06.372Z,20.13
2018-04-29T15:14:32.909Z,19.53
2018-04-29T15:16:59.840Z,21.77
2018-04-29T15:19:33.313Z,26.90
2018-04-29T15:21:59.745Z,19.93
2018-04-29T15:24:26.657Z,19.83
2018-04-29T15:26:53.193Z,21.30
2018-04-29T15:29:21.281Z,18.83
2018-04-29T15:31:48.576Z,20.60
2018-04-29T15:34:15.101Z,19.50
2018-04-29T15:36:41.507Z,20.67
2018-04-29T15:39:07.947Z,23.90
2018-04-29T15:41:34.574Z,20.17
2018-04-29T15:44:01.441Z,17.63
2018-04-29T15:46:28.233Z,21.53
2018-04-29T15:48:54.899Z,17.60
2018-04-29T15:51:22.483Z,19.93
2018-04-29T15:53:49.006Z,18.60
2018-04-29T15:56:15.552Z,20.23
2018-04-29T15:58:41.957Z,23.40
2018-04-29T16:01:09.158Z,19.50
2018-04-29T16:03:35.663Z,19.57
2018-04-29T16:06:02.096Z,17.97
2018-04-29T16:08:29.297Z,20.00
2018-04-29T16:10:55.869Z,23.30
2018-04-29T16:13:22.363Z,25.47
2018-04-29T16:15:48.926Z,23.93
2018-04-29T16:18:15.694Z,21.23
2018-04-29T16:20:42.128Z,20.17
2018-04-29T16:23:09.661Z,35.47
2018-04-29T16:25:36.916Z,23.30
2018-04-29T16:28:04.889Z,21.17
2018-04-29T16:30:32.788Z,22.73
2018-04-29T16:32:59.246Z,23.00
2018-04-29T16:35:25.694Z,23.43
2018-04-29T16:37:52.169Z,21.60
2018-04-29T16:40:19.401Z,21.30
2018-04-29T16:42:45.807Z,19.77
2018-04-29T16:45:13.433Z,20.50
2018-04-29T16:47:40.004Z,20.90
2018-04-29T16:50:06.506Z,22.80
2018-04-29T16:52:33.849Z,20.17
2018-04-29T16:55:01.483Z,21.53
2018-04-29T16:57:28.017Z,24.60
2018-04-29T16:59:55.363Z,32.83
2018-04-29T17:02:21.945Z,25.27
2018-04-29T17:04:48.439Z,23.80
2018-04-29T17:07:16.382Z,30.03
2018-04-29T17:09:42.868Z,25.63
2018-04-29T17:12:09.382Z,23.43
2018-04-29T17:14:35.812Z,26.00
2018-04-29T17:17:02.392Z,30.43
2018-04-29T17:19:28.850Z,31.03
2018-04-29T17:21:55.269Z,27.83
2018-04-29T17:24:22.728Z,27.33
2018-04-29T17:26:49.167Z,30.27
2018-04-29T17:29:16.795Z,31.80
2018-04-29T17:31:44.360Z,28.73
2018-04-29T17:34:11.204Z,26.13
2018-04-29T17:36:39.271Z,30.60
2018-04-29T17:39:05.908Z,29.17
2018-04-29T17:41:32.504Z,29.33
2018-04-29T17:44:00.552Z,32.77
2018-04-29T17:46:26.996Z,37.87
2018-04-29T17:48:53.404Z,30.77
2018-04-29T17:51:20.240Z,33.10
2018-04-29T17:53:46.676Z,33.43
2018-04-29T17:56:13.202Z,32.63
2018-04-29T17:58:39.823Z,35.47
2018-04-29T18:01:06.691Z,29.23
2018-04-29T18:03:33.135Z,33.43
2018-04-29T18:05:59.559Z,36.90
2018-04-29T18:08:26.100Z,39.03
2018-04-29T18:10:53.085Z,40.77
2018-04-29T18:13:21.274Z,35.57
2018-04-29T18:15:47.785Z,45.30
2018-04-29T18:18:14.216Z,39.27
2018-04-29T18:20:41.646Z,33.17
2018-04-29T18:23:08.166Z,40.90
2018-04-29T18:25:34.606Z,36.03
2018-04-29T18:28:01.121Z,32.93
2018-04-29T18:30:27.682Z,43.53
2018-04-29T18:32:54.156Z,35.60
2018-04-29T18:35:22.348Z,34.90
2018-04-29T18:37:49.335Z,33.97
2018-04-29T18:40:17.770Z,44.03
2018-04-29T18:42:45.925Z,32.10
2018-04-29T18:45:13.197Z,31.07
2018-04-29T18:47:39.732Z,30.07
2018-04-29T18:50:06.412Z,27.03
2018-04-29T18:52:33.640Z,28.67
2018-04-29T18:55:01.153Z,27.10
2018-04-29T18:57:29.097Z,32.57
2018-04-29T18:59:55.640Z,22.57
2018-04-29T19:02:22.133Z,26.20
2018-04-29T19:04:49.365Z,26.90
2018-04-29T19:07:15.997Z,24.93
2018-04-29T19:09:43.343Z,24.53
2018-04-29T19:12:09.795Z,37.10
2018-04-29T19:14:36.354Z,28.80
2018-04-29T19:17:03.157Z,27.43
2018-04-29T19:19:29.901Z,23.80
2018-04-29T19:21:56.370Z,24.40
2018-04-29T19:24:24.348Z,28.40
2018-04-29T19:26:51.040Z,26.83
2018-04-29T19:29:17.530Z,23.23
2018-04-29T19:31:44.885Z,21.70
2018-04-29T19:34:11.577Z,22.60
2018-04-29T19:36:38.522Z,20.63
2018-04-29T19:39:05.157Z,24.77
2018-04-29T19:41:32.532Z,20.03
2018-04-29T19:43:59.338Z,15.07
2018-04-29T19:46:25.848Z,20.53
2018-04-29T19:48:53.418Z,18.83
2018-04-29T19:51:20.090Z,18.80
2018-04-29T19:53:47.502Z,16.03
2018-04-29T19:56:14.376Z,20.40
2018-04-29T19:58:41.490Z,16.13
2018-04-29T20:01:08.301Z,22.10
2018-04-29T20:03:34.925Z,15.53
2018-04-29T20:06:03.119Z,21.27
2018-04-29T20:08:32.179Z,18.30
2018-04-29T20:10:59.646Z,18.40
2018-04-29T20:13:26.893Z,20.90
2018-04-29T20:15:53.900Z,18.73
2018-04-29T20:18:21.087Z,21.20
2018-04-29T20:20:48.567Z,12.77
2018-04-29T20:23:16.418Z,14.83
2018-04-29T20:25:43.980Z,15.70
2018-04-29T20:28:10.860Z,19.40
2018-04-29T20:30:38.219Z,20.83
2018-04-29T20:33:05.058Z,19.13
2018-04-29T20:35:32.461Z,17.43
2018-04-29T20:38:00.151Z,24.10
2018-04-29T20:40:27.834Z,13.57
2018-04-29T20:42:55.218Z,21.20
2018-04-29T20:45:21.930Z,22.07
2018-04-29T20:47:48.381Z,17.07
2018-04-29T20:50:16.192Z,18.10
2018-04-29T20:52:43.529Z,16.70
2018-04-29T20:55:10.136Z,26.10
2018-04-29T20:57:36.812Z,17.67
2018-04-29T21:00:03.575Z,21.43
2018-04-29T21:02:30.137Z,19.30
2018-04-29T21:04:56.741Z,26.47
2018-04-29T21:07:23.280Z,26.80
2018-04-29T21:09:49.796Z,23.13
2018-04-29T21:12:16.237Z,18.80
2018-04-29T21:14:43.701Z,19.43
2018-04-29T21:17:11.358Z,22.37
2018-04-29T21:19:37.977Z,19.50
2018-04-29T21:22:04.589Z,29.63
2018-04-29T21:24:31.242Z,22.50
2018-04-29T21:26:57.713Z,22.97
2018-04-29T21:29:24.122Z,22.97
2018-04-29T21:31:50.614Z,24.40
2018-04-29T21:34:18.638Z,24.00
2018-04-29T21:36:45.091Z,23.63
2018-04-29T21:39:12.272Z,25.00
2018-04-29T21:41:39.509Z,25.50
2018-04-29T21:44:06.726Z,36.80
2018-04-29T21:46:33.227Z,31.20
2018-04-29T21:49:00.425Z,28.00
2018-04-29T21:51:27.648Z,27.47
2018-04-29T21:53:54.133Z,31.63
2018-04-29T21:56:20.720Z,26.00
2018-04-29T21:58:47.553Z,30.90
2018-04-29T22:01:14.010Z,28.60
2018-04-29T22:03:40.487Z,31.33
2018-04-29T22:06:06.949Z,27.87
2018-04-29T22:08:34.286Z,26.70
2018-04-29T22:11:00.841Z,27.97
2018-04-29T22:13:27.410Z,36.90
2018-04-29T22:15:54.753Z,25.73
2018-04-29T22:18:22.561Z,28.43
2018-04-29T22:20:49.043Z,27.03
2018-04-29T22:23:15.477Z,26.27
2018-04-29T22:25:43.091Z,29.40
2018-04-29T22:28:09.524Z,27.80
2018-04-29T22:30:35.984Z,33.63
2018-04-29T22:33:02.455Z,32.73
2018-04-29T22:35:28.975Z,30.77
2018-04-29T22:37:55.799Z,31.80
2018-04-29T22:40:22.593Z,38.23
2018-04-29T22:42:49.048Z,32.07
2018-04-29T22:45:15.497Z,38.87
2018-04-29T22:47:41.999Z,33.60
2018-04-29T22:50:08.446Z,34.13
2018-04-29T22:52:34.913Z,33.73
2018-04-29T22:55:01.432Z,26.80
2018-04-29T22:57:28.689Z,32.27
2018-04-29T22:59:55.829Z,28.10
2018-04-29T23:02:22.328Z,30.27
2018-04-29T23:04:48.851Z,30.30
2018-04-29T23:07:15.647Z,38.00
2018-04-29T23:09:42.353Z,28.53
2018-04-29T23:12:08.854Z,29.50
2018-04-29T23:14:35.465Z,26.97
2018-04-29T23:17:02.161Z,30.73
2018-04-29T23:19:28.649Z,27.60
2018-04-29T23:21:55.446Z,24.93
2018-04-29T23:24:22.898Z,30.43
2018-04-29T23:26:49.811Z,25.33
2018-04-29T23:29:16.429Z,30.60
2018-04-29T23:31:43.245Z,23.63
2018-04-29T23:34:09.761Z,27.10
2018-04-29T23:36:36.127Z,21.37
2018-04-29T23:39:02.615Z,22.67
2018-04-29T23:41:29.018Z,26.37
2018-04-29T23:43:55.429Z,31.70
2018-04-29T23:46:21.869Z,22.10
2018-04-29T23:48:48.271Z,20.33
2018-04-29T23:51:14.725Z,24.33
2018-04-29T23:53:41.407Z,22.33
2018-04-29T23:56:07.898Z,18.70
2018-04-29T23:58:35.123Z,19.77
